Baltic Marshall — C4KD2 — position and weather

sailwx.info

Track history (hours):
 
Tides and Currents Weather Stations Pressure Air Temp Water Temp Dewpoint Dewpoint Depression Visibility Wind Speed Wind Dir Waves Ship Positions

Baltic Marshall

Last reported at 2017-Mar-27 23:33 UTC. Time now 2017-Mar-28 00:42 UTC.
Position N 60°03' E 029°09'.

Length 183 m; draft 7.6 m.

Type: Ship. MMSI: 212118000.

Date/timePositionNaut miles runAvg speedWind from/ knotsBaromVisibWave heightAir tempDewpointWater temp
2017-Mar-27 23:33N 60°03' E 029°09'0 0.2
2017-Mar-27 22:33N 60°03' E 029°09'0 0.3
2017-Mar-27 21:33N 60°04' E 029°09'0 0.2
2017-Mar-27 20:32N 60°04' E 029°09'0 0.1
2017-Mar-27 19:33N 60°04' E 029°09'0 0.1
2017-Mar-27 18:33N 60°04' E 029°09'0 0.4
2017-Mar-27 17:33N 60°04' E 029°08'0 0.4
2017-Mar-27 16:33N 60°04' E 029°07'0 0.3
2017-Mar-27 15:33N 60°04' E 029°07'0 0.2
2017-Mar-27 14:33N 60°04' E 029°06'0 0.3
2017-Mar-27 13:32N 60°04' E 029°06'0 0.4
2017-Mar-27 12:33N 60°04' E 029°05'0 0.3
2017-Mar-27 11:33N 60°04' E 029°04'0 0.3
2017-Mar-27 10:33N 60°04' E 029°04'0 0.2
2017-Mar-27 09:33N 60°04' E 029°03'0 0.1
2017-Mar-27 08:33N 60°04' E 029°03'0 0.0
2017-Mar-27 07:33N 60°04' E 029°03'0 0.0
2017-Mar-27 06:33N 60°04' E 029°03'0 0.0
2017-Mar-27 05:33N 60°04' E 029°03'0 0.0
2017-Mar-27 04:33N 60°04' E 029°03'0 0.0
2017-Mar-27 03:33N 60°04' E 029°03'0 0.1
2017-Mar-27 02:33N 60°04' E 029°03'0 0.0
2017-Mar-27 01:33N 60°04' E 029°03'0 0.0
2017-Mar-27 00:33N 60°04' E 029°03'0 0.1
2017-Mar-26 23:33N 60°04' E 029°03'0 0.0
2017-Mar-26 22:33N 60°04' E 029°03'0 0.0
2017-Mar-26 21:17N 60°04' E 029°03'4 1.3
2017-Mar-26 18:33N 60°01' E 029°05'1 0.8
2017-Mar-26 17:33N 60°01' E 029°06'0 0.3
2017-Mar-26 16:33N 60°02' E 029°06'0 0.5
2017-Mar-26 15:33N 60°02' E 029°05'5 4.5
2017-Mar-26 14:33N 60°02' E 029°14'4 1.1
2017-Mar-26 10:28N 60°02' E 029°23'1 0.3
2017-Mar-26 07:17N 60°02' E 029°24'0 0.0
2017-Mar-26 05:33N 60°02' E 029°24'0 0.0
2017-Mar-25 07:21N 60°02' E 029°24'911.0
2017-Mar-25 06:33N 60°02' E 029°06'1110.6
2017-Mar-25 05:33N 60°02' E 028°45'1312.9
2017-Mar-25 04:33N 60°05' E 028°20'1312.8
2017-Mar-25 03:33N 60°10' E 027°56'1312.9
2017-Mar-25 02:34N 60°06' E 027°31'1413.8
2017-Mar-25 01:33N 59°59' E 027°07'1313.4
2017-Mar-25 00:33N 59°60' E 026°40'1413.7
2017-Mar-24 23:33N 59°56' E 026°14'1414.0
2017-Mar-24 22:31N 59°52' E 025°46'35811.2
2017-Mar-23 14:33N 56°09' E 016°59'1413.8
2017-Mar-23 13:33N 56°00' E 016°39'1413.6
2017-Mar-23 12:33N 55°54' E 016°18'1413.6
2017-Mar-23 11:33N 55°47' E 015°57'1413.7
2017-Mar-23 10:33N 55°40' E 015°36'1414.0
2017-Mar-23 09:34N 55°34' E 015°14'1413.9
2017-Mar-23 08:34N 55°28' E 014°52'1413.9
2017-Mar-23 07:33N 55°19' E 014°33'1313.4
2017-Mar-23 06:33N 55°10' E 014°15'1413.8
2017-Mar-23 05:33N 55°10' E 013°51'1413.8
2017-Mar-23 04:33N 55°12' E 013°27'1413.7
2017-Mar-23 03:33N 55°14' E 013°03'1413.6
2017-Mar-23 02:33N 55°17' E 012°40'1312.8
2017-Mar-23 01:33N 55°30' E 012°42'1111.5
2017-Mar-23 00:33N 55°42' E 012°41'1414.1
2017-Mar-22 23:34N 55°56' E 012°39'1313.1
2017-Mar-22 22:34N 56°08' E 012°30'1110.9
2017-Mar-22 21:33N 56°14' E 012°14'1312.9
2017-Mar-22 20:33N 56°25' E 012°01'5814.3
2017-Mar-22 16:30N 57°20' E 011°29'1313.8
2017-Mar-22 15:34N 57°31' E 011°16'1414.4
2017-Mar-22 14:34N 57°37' E 010°51'6 5.3
2017-Mar-22 13:29N 57°39' E 010°42'0 0.0
2017-Mar-22 12:32N 57°39' E 010°42'0 0.0
2017-Mar-22 11:29N 57°39' E 010°42'0 0.0
2017-Mar-22 10:32N 57°39' E 010°42'0 0.1
2017-Mar-22 09:32N 57°39' E 010°42'0 0.0
2017-Mar-22 08:32N 57°39' E 010°42'0 0.0
2017-Mar-22 07:26N 57°39' E 010°42'0 0.0
2017-Mar-22 05:14N 57°39' E 010°42'0 0.0
2017-Mar-22 04:29N 57°39' E 010°42'0 0.0
2017-Mar-22 03:23N 57°39' E 010°42'0 0.0
2017-Mar-22 02:29N 57°39' E 010°42'0 0.0
2017-Mar-22 01:29N 57°39' E 010°42'0 0.0
2017-Mar-22 00:11N 57°39' E 010°42'0 0.0
2017-Mar-21 23:32N 57°39' E 010°42'0 0.0
2017-Mar-21 22:17N 57°39' E 010°42'0 0.0
2017-Mar-21 21:14N 57°39' E 010°42'0 0.0
2017-Mar-21 20:26N 57°39' E 010°42'0 0.0
2017-Mar-21 18:29N 57°39' E 010°42'0 0.0
2017-Mar-21 17:20N 57°39' E 010°42'0 0.0
2017-Mar-21 16:29N 57°39' E 010°42'0 0.0
2017-Mar-21 15:29N 57°39' E 010°42'0 0.0
2017-Mar-21 14:32N 57°39' E 010°42'0 0.0
2017-Mar-21 13:32N 57°39' E 010°42'0 0.0
2017-Mar-21 10:26N 57°39' E 010°42'0 0.0
2017-Mar-21 09:26N 57°39' E 010°42'0 0.0
2017-Mar-21 06:05N 57°39' E 010°42'0 0.0
2017-Mar-21 02:32N 57°39' E 010°42'0 0.0
2017-Mar-21 01:26N 57°39' E 010°42'0 0.0
2017-Mar-21 00:29N 57°39' E 010°42'0 0.0
2017-Mar-20 23:32N 57°39' E 010°42'0 0.0
2017-Mar-20 22:32N 57°39' E 010°42'0 0.1
2017-Mar-20 21:23N 57°39' E 010°41'0 0.0
2017-Mar-20 20:23N 57°39' E 010°41'0 0.0
2017-Mar-20 19:29N 57°39' E 010°41'0 0.0
2017-Mar-20 18:26N 57°39' E 010°41'0 0.0
2017-Mar-20 17:29N 57°39' E 010°41'0 0.0
2017-Mar-20 16:29N 57°39' E 010°41'0 0.0
2017-Mar-20 15:32N 57°39' E 010°41'0 0.0
2017-Mar-20 14:23N 57°39' E 010°41'0 0.0
2017-Mar-20 12:32N 57°39' E 010°41'0 0.0
2017-Mar-20 11:32N 57°39' E 010°41'0 0.0
2017-Mar-20 10:29N 57°39' E 010°41'0 0.1
2017-Mar-20 08:26N 57°39' E 010°42'0 0.0
2017-Mar-20 07:26N 57°39' E 010°42'0 0.5
2017-Mar-20 06:33N 57°39' E 010°42'10 9.6
2017-Mar-20 05:33N 57°48' E 010°45'1414.0
2017-Mar-20 04:33N 58°02' E 010°40'1514.8
2017-Mar-20 03:33N 58°17' E 010°35'1413.7
2017-Mar-20 02:33N 58°30' E 010°30'1313.3
2017-Mar-20 01:33N 58°43' E 010°25'1312.8
2017-Mar-20 00:33N 58°56' E 010°31'1111.4
2017-Mar-19 23:33N 59°07' E 010°34'1212.2
2017-Mar-19 22:33N 59°19' E 010°33'1 0.0
2017-Mar-18 20:08N 59°20' E 010°31'0 0.2
2017-Mar-18 19:33N 59°20' E 010°31'8 7.9
2017-Mar-18 18:33N 59°13' E 010°39'8 8.1
2017-Mar-18 17:33N 59°05' E 010°36'1010.4
2017-Mar-18 16:33N 58°55' E 010°28'1312.6
2017-Mar-18 15:33N 58°44' E 010°16'1413.6
2017-Mar-18 14:33N 58°32' E 010°27'1413.1
2017-Mar-18 13:31N 58°20' E 010°40'1313.1
2017-Mar-18 12:33N 58°09' E 010°52'1413.1
2017-Mar-18 11:30N 57°56' E 011°01'1212.7
2017-Mar-18 10:33N 57°45' E 011°11'1312.7
2017-Mar-18 09:32N 57°34' E 011°21'1212.5
2017-Mar-18 08:33N 57°22' E 011°30'1312.9
2017-Mar-18 07:33N 57°10' E 011°38'5611.0
2017-Mar-18 02:31N 56°17' E 011°06'  
Track history (hours):
 
Tides and Currents Weather Stations Pressure Air Temp Water Temp Dewpoint Dewpoint Depression Visibility Wind Speed Wind Dir Waves Ship Positions

Baltic Marshall

Last reported at 2017-Mar-27 23:33 UTC. Time now 2017-Mar-28 00:42 UTC.
Position N 60°03' E 029°09'.

Length 183 m; draft 7.6 m.

Type: Ship. MMSI: 212118000.

Date/timePositionNaut miles runAvg speedWind from/ knotsBaromVisibWave heightAir tempDewpointWater temp
2017-Mar-27 23:33N 60°03' E 029°09'0 0.2
2017-Mar-27 22:33N 60°03' E 029°09'0 0.3
2017-Mar-27 21:33N 60°04' E 029°09'0 0.2
2017-Mar-27 20:32N 60°04' E 029°09'0 0.1
2017-Mar-27 19:33N 60°04' E 029°09'0 0.1
2017-Mar-27 18:33N 60°04' E 029°09'0 0.4
2017-Mar-27 17:33N 60°04' E 029°08'0 0.4
2017-Mar-27 16:33N 60°04' E 029°07'0 0.3
2017-Mar-27 15:33N 60°04' E 029°07'0 0.2
2017-Mar-27 14:33N 60°04' E 029°06'0 0.3
2017-Mar-27 13:32N 60°04' E 029°06'0 0.4
2017-Mar-27 12:33N 60°04' E 029°05'0 0.3
2017-Mar-27 11:33N 60°04' E 029°04'0 0.3
2017-Mar-27 10:33N 60°04' E 029°04'0 0.2
2017-Mar-27 09:33N 60°04' E 029°03'0 0.1
2017-Mar-27 08:33N 60°04' E 029°03'0 0.0
2017-Mar-27 07:33N 60°04' E 029°03'0 0.0
2017-Mar-27 06:33N 60°04' E 029°03'0 0.0
2017-Mar-27 05:33N 60°04' E 029°03'0 0.0
2017-Mar-27 04:33N 60°04' E 029°03'0 0.0
2017-Mar-27 03:33N 60°04' E 029°03'0 0.1
2017-Mar-27 02:33N 60°04' E 029°03'0 0.0
2017-Mar-27 01:33N 60°04' E 029°03'0 0.0
2017-Mar-27 00:33N 60°04' E 029°03'0 0.1
2017-Mar-26 23:33N 60°04' E 029°03'0 0.0
2017-Mar-26 22:33N 60°04' E 029°03'0 0.0
2017-Mar-26 21:17N 60°04' E 029°03'4 1.3
2017-Mar-26 18:33N 60°01' E 029°05'1 0.8
2017-Mar-26 17:33N 60°01' E 029°06'0 0.3
2017-Mar-26 16:33N 60°02' E 029°06'0 0.5
2017-Mar-26 15:33N 60°02' E 029°05'5 4.5
2017-Mar-26 14:33N 60°02' E 029°14'4 1.1
2017-Mar-26 10:28N 60°02' E 029°23'1 0.3
2017-Mar-26 07:17N 60°02' E 029°24'0 0.0
2017-Mar-26 05:33N 60°02' E 029°24'0 0.0
2017-Mar-25 07:21N 60°02' E 029°24'911.0
2017-Mar-25 06:33N 60°02' E 029°06'1110.6
2017-Mar-25 05:33N 60°02' E 028°45'1312.9
2017-Mar-25 04:33N 60°05' E 028°20'1312.8
2017-Mar-25 03:33N 60°10' E 027°56'1312.9
2017-Mar-25 02:34N 60°06' E 027°31'1413.8
2017-Mar-25 01:33N 59°59' E 027°07'1313.4
2017-Mar-25 00:33N 59°60' E 026°40'1413.7
2017-Mar-24 23:33N 59°56' E 026°14'1414.0
2017-Mar-24 22:31N 59°52' E 025°46'35811.2
2017-Mar-23 14:33N 56°09' E 016°59'1413.8
2017-Mar-23 13:33N 56°00' E 016°39'1413.6
2017-Mar-23 12:33N 55°54' E 016°18'1413.6
2017-Mar-23 11:33N 55°47' E 015°57'1413.7
2017-Mar-23 10:33N 55°40' E 015°36'1414.0
2017-Mar-23 09:34N 55°34' E 015°14'1413.9
2017-Mar-23 08:34N 55°28' E 014°52'1413.9
2017-Mar-23 07:33N 55°19' E 014°33'1313.4
2017-Mar-23 06:33N 55°10' E 014°15'1413.8
2017-Mar-23 05:33N 55°10' E 013°51'1413.8
2017-Mar-23 04:33N 55°12' E 013°27'1413.7
2017-Mar-23 03:33N 55°14' E 013°03'1413.6
2017-Mar-23 02:33N 55°17' E 012°40'1312.8
2017-Mar-23 01:33N 55°30' E 012°42'1111.5
2017-Mar-23 00:33N 55°42' E 012°41'1414.1
2017-Mar-22 23:34N 55°56' E 012°39'1313.1
2017-Mar-22 22:34N 56°08' E 012°30'1110.9
2017-Mar-22 21:33N 56°14' E 012°14'1312.9
2017-Mar-22 20:33N 56°25' E 012°01'5814.3
2017-Mar-22 16:30N 57°20' E 011°29'1313.8
2017-Mar-22 15:34N 57°31' E 011°16'1414.4
2017-Mar-22 14:34N 57°37' E 010°51'6 5.3
2017-Mar-22 13:29N 57°39' E 010°42'0 0.0
2017-Mar-22 12:32N 57°39' E 010°42'0 0.0
2017-Mar-22 11:29N 57°39' E 010°42'0 0.0
2017-Mar-22 10:32N 57°39' E 010°42'0 0.1
2017-Mar-22 09:32N 57°39' E 010°42'0 0.0
2017-Mar-22 08:32N 57°39' E 010°42'0 0.0
2017-Mar-22 07:26N 57°39' E 010°42'0 0.0
2017-Mar-22 05:14N 57°39' E 010°42'0 0.0
2017-Mar-22 04:29N 57°39' E 010°42'0 0.0
2017-Mar-22 03:23N 57°39' E 010°42'0 0.0
2017-Mar-22 02:29N 57°39' E 010°42'0 0.0
2017-Mar-22 01:29N 57°39' E 010°42'0 0.0
2017-Mar-22 00:11N 57°39' E 010°42'0 0.0
2017-Mar-21 23:32N 57°39' E 010°42'0 0.0
2017-Mar-21 22:17N 57°39' E 010°42'0 0.0
2017-Mar-21 21:14N 57°39' E 010°42'0 0.0
2017-Mar-21 20:26N 57°39' E 010°42'0 0.0
2017-Mar-21 18:29N 57°39' E 010°42'0 0.0
2017-Mar-21 17:20N 57°39' E 010°42'0 0.0
2017-Mar-21 16:29N 57°39' E 010°42'0 0.0
2017-Mar-21 15:29N 57°39' E 010°42'0 0.0
2017-Mar-21 14:32N 57°39' E 010°42'0 0.0
2017-Mar-21 13:32N 57°39' E 010°42'0 0.0
2017-Mar-21 10:26N 57°39' E 010°42'0 0.0
2017-Mar-21 09:26N 57°39' E 010°42'0 0.0
2017-Mar-21 06:05N 57°39' E 010°42'0 0.0
2017-Mar-21 02:32N 57°39' E 010°42'0 0.0
2017-Mar-21 01:26N 57°39' E 010°42'0 0.0
2017-Mar-21 00:29N 57°39' E 010°42'0 0.0
2017-Mar-20 23:32N 57°39' E 010°42'0 0.0
2017-Mar-20 22:32N 57°39' E 010°42'0 0.1
2017-Mar-20 21:23N 57°39' E 010°41'0 0.0
2017-Mar-20 20:23N 57°39' E 010°41'0 0.0
2017-Mar-20 19:29N 57°39' E 010°41'0 0.0
2017-Mar-20 18:26N 57°39' E 010°41'0 0.0
2017-Mar-20 17:29N 57°39' E 010°41'0 0.0
2017-Mar-20 16:29N 57°39' E 010°41'0 0.0
2017-Mar-20 15:32N 57°39' E 010°41'0 0.0
2017-Mar-20 14:23N 57°39' E 010°41'0 0.0
2017-Mar-20 12:32N 57°39' E 010°41'0 0.0
2017-Mar-20 11:32N 57°39' E 010°41'0 0.0
2017-Mar-20 10:29N 57°39' E 010°41'0 0.1
2017-Mar-20 08:26N 57°39' E 010°42'0 0.0
2017-Mar-20 07:26N 57°39' E 010°42'0 0.5
2017-Mar-20 06:33N 57°39' E 010°42'10 9.6
2017-Mar-20 05:33N 57°48' E 010°45'1414.0
2017-Mar-20 04:33N 58°02' E 010°40'1514.8
2017-Mar-20 03:33N 58°17' E 010°35'1413.7
2017-Mar-20 02:33N 58°30' E 010°30'1313.3
2017-Mar-20 01:33N 58°43' E 010°25'1312.8
2017-Mar-20 00:33N 58°56' E 010°31'1111.4
2017-Mar-19 23:33N 59°07' E 010°34'1212.2
2017-Mar-19 22:33N 59°19' E 010°33'1 0.0
2017-Mar-18 20:08N 59°20' E 010°31'0 0.2
2017-Mar-18 19:33N 59°20' E 010°31'8 7.9
2017-Mar-18 18:33N 59°13' E 010°39'8 8.1
2017-Mar-18 17:33N 59°05' E 010°36'1010.4
2017-Mar-18 16:33N 58°55' E 010°28'1312.6
2017-Mar-18 15:33N 58°44' E 010°16'1413.6
2017-Mar-18 14:33N 58°32' E 010°27'1413.1
2017-Mar-18 13:31N 58°20' E 010°40'1313.1
2017-Mar-18 12:33N 58°09' E 010°52'1413.1
2017-Mar-18 11:30N 57°56' E 011°01'1212.7
2017-Mar-18 10:33N 57°45' E 011°11'1312.7
2017-Mar-18 09:32N 57°34' E 011°21'1212.5
2017-Mar-18 08:33N 57°22' E 011°30'1312.9
2017-Mar-18 07:33N 57°10' E 011°38'5611.0
2017-Mar-18 02:31N 56°17' E 011°06'  

Dump ship's entire track history